Ampere, New Jersey
Current Conditions -  °F | °C
As of 8:51 PM on Friday 28 Nov 2014 (Local Time) from KEWR Reporting Station
Few Clouds Few Clouds  
Wind Chill: -6°   Ceiling: Unl
Heat Index: -2°   Visibility: 10mi
Dew Point: -11°   Wind: 7mph
Humidity: 49%   Direction: 310°NW
Pressure: 30.28"   Gusts: NA
Location:  40.7716°N, 74.2073°W
Report Text: KEWR 290151Z 31006KT 10SM FEW250 M02/M11 A3028 RMK AO2 SLP252 T10171111
Loading
Personal Weather Stations






























Interactive Weather Map New forecast layout! Learn more

10-Day Weather Forecast

Advertisements
Track Severe Weather on mobile